Time;durP1;ratioP1;P1;durP2;ratioP2;P2;SDS_P1;SDS_P2;PMS_P1;PMS_P2;Temp;Humidity;BMP_temperature;BMP_pressure;BME280_temperature;BME280_humidity;BME280_pressure;Samples;Min_cycle;Max_cycle;Signal;HPM_P1;HPM_P2
2020/12/10 00:01:05;;;;;;;9.70;6.90;;;0.80;99.90;;;;;;5072600;28;20426;-60
2020/12/10 00:03:30;;;;;;;10.90;6.80;;;0.80;99.90;;;;;;5064931;28;20181;-60
2020/12/10 00:05:56;;;;;;;12.73;7.47;;;0.80;99.90;;;;;;5067467;28;20179;-60
2020/12/10 00:08:21;;;;;;;8.23;5.67;;;0.80;99.90;;;;;;5072286;28;20564;-60
2020/12/10 00:10:47;;;;;;;11.80;7.67;;;0.80;99.90;;;;;;5071877;28;20264;-60
2020/12/10 00:13:13;;;;;;;14.37;7.10;;;0.80;99.90;;;;;;5075836;28;20236;-60
2020/12/10 00:15:41;;;;;;;11.23;7.07;;;0.80;99.90;;;;;;5070694;28;20549;-60
2020/12/10 00:18:07;;;;;;;10.20;7.20;;;0.80;99.90;;;;;;5071707;28;20265;-57
2020/12/10 00:20:32;;;;;;;12.53;6.90;;;0.80;99.90;;;;;;5071192;28;20406;-60
2020/12/10 00:22:58;;;;;;;9.83;6.27;;;0.80;99.90;;;;;;5062531;28;20434;-60
2020/12/10 00:25:23;;;;;;;10.00;6.57;;;0.80;99.90;;;;;;5064210;28;20191;-59
2020/12/10 00:27:49;;;;;;;10.50;6.40;;;0.80;99.90;;;;;;5060036;28;20298;-60
2020/12/10 00:30:15;;;;;;;8.43;6.10;;;0.80;99.90;;;;;;5082154;28;20198;-60
2020/12/10 00:32:40;;;;;;;13.70;7.63;;;0.80;99.90;;;;;;5073804;28;20185;-60
2020/12/10 00:35:08;;;;;;;12.17;8.00;;;0.70;99.90;;;;;;5053186;28;20296;-60
2020/12/10 00:37:35;;;;;;;11.23;7.00;;;0.70;99.90;;;;;;5052663;28;20329;-61
2020/12/10 00:40:02;;;;;;;15.47;9.00;;;0.80;99.90;;;;;;5071471;28;20428;-59
2020/12/10 00:42:28;;;;;;;12.37;6.80;;;0.80;99.90;;;;;;5063047;28;20426;-60
2020/12/10 00:44:54;;;;;;;11.30;7.23;;;0.80;99.90;;;;;;5070085;28;20438;-59
2020/12/10 00:47:19;;;;;;;9.73;6.77;;;0.80;99.90;;;;;;5051272;28;20227;-59
2020/12/10 00:49:46;;;;;;;12.03;7.47;;;0.80;99.90;;;;;;5049091;28;20186;-60
2020/12/10 00:52:14;;;;;;;14.60;7.30;;;0.80;99.90;;;;;;5068258;28;20513;-60
2020/12/10 00:54:40;;;;;;;11.73;7.00;;;0.80;99.90;;;;;;5072022;28;20453;-60
2020/12/10 00:57:10;;;;;;;14.47;8.27;;;0.80;99.90;;;;;;5052923;28;20458;-60
2020/12/10 00:59:39;;;;;;;15.73;7.67;;;0.80;99.90;;;;;;5071015;28;20426;-60
2020/12/10 01:02:09;;;;;;;13.67;8.77;;;0.80;99.90;;;;;;5065832;28;20408;-59
2020/12/10 01:04:35;;;;;;;16.60;7.23;;;0.80;99.90;;;;;;5069618;28;20414;-60
2020/12/10 01:07:01;;;;;;;14.93;7.77;;;0.80;99.90;;;;;;5067564;28;20482;-60
2020/12/10 01:09:26;;;;;;;12.97;7.23;;;0.80;99.90;;;;;;5070644;28;20464;-60
2020/12/10 01:11:52;;;;;;;16.23;9.03;;;0.80;99.90;;;;;;5072243;28;20626;-60
2020/12/10 01:14:18;;;;;;;13.67;8.23;;;0.80;99.90;;;;;;5070789;28;20659;-60
2020/12/10 01:16:48;;;;;;;15.00;8.80;;;0.80;99.90;;;;;;5069371;28;20578;-60
2020/12/10 01:19:14;;;;;;;13.77;7.60;;;0.80;99.90;;;;;;5051726;28;20478;-62
2020/12/10 01:21:40;;;;;;;15.03;8.20;;;0.80;99.90;;;;;;5034149;28;20944;-59
2020/12/10 01:24:06;;;;;;;16.77;8.27;;;0.80;99.90;;;;;;5062988;28;20427;-60
2020/12/10 01:26:35;;;;;;;15.10;8.03;;;0.80;99.90;;;;;;5061109;28;20177;-58
2020/12/10 01:29:01;;;;;;;16.63;8.17;;;0.80;99.90;;;;;;5074020;28;20561;-60
2020/12/10 01:31:32;;;;;;;17.47;8.87;;;0.80;99.90;;;;;;5074953;28;20436;-60
2020/12/10 01:34:15;;;;;;;18.33;8.17;;;0.80;99.90;;;;;;5064724;28;20278;-60
2020/12/10 01:36:41;;;;;;;17.00;9.60;;;0.70;99.90;;;;;;5075219;28;21111;-60
2020/12/10 01:39:07;;;;;;;18.87;9.50;;;0.70;99.90;;;;;;5075054;28;20410;-60
2020/12/10 01:41:34;;;;;;;21.90;10.13;;;0.70;99.90;;;;;;5073121;28;20190;-60
2020/12/10 01:44:07;;;;;;;17.93;9.60;;;0.70;99.90;;;;;;5055816;28;20184;-60
2020/12/10 01:46:33;;;;;;;18.27;9.40;;;0.70;99.90;;;;;;5060281;28;20482;-61
2020/12/10 01:49:03;;;;;;;17.10;8.70;;;0.70;99.90;;;;;;5074880;28;20936;-59
2020/12/10 01:51:32;;;;;;;16.60;8.43;;;0.70;99.90;;;;;;5073278;28;20920;-59
2020/12/10 01:53:59;;;;;;;20.13;9.00;;;0.70;99.90;;;;;;5051413;28;20418;-59
2020/12/10 01:56:25;;;;;;;17.07;8.70;;;0.70;99.90;;;;;;5074732;28;20545;-60
2020/12/10 01:58:50;;;;;;;15.30;8.10;;;0.70;99.90;;;;;;5071432;28;20521;-60
2020/12/10 02:01:16;;;;;;;17.27;8.87;;;0.70;99.90;;;;;;5046104;28;20726;-60
2020/12/10 02:03:42;;;;;;;15.70;8.87;;;0.70;99.90;;;;;;5073736;28;20173;-60
2020/12/10 02:06:08;;;;;;;18.23;8.60;;;0.70;99.90;;;;;;5084942;28;20171;-60
2020/12/10 02:08:33;;;;;;;18.10;8.27;;;0.70;99.90;;;;;;5083887;28;20230;-60
2020/12/10 02:10:59;;;;;;;14.80;8.07;;;0.70;99.90;;;;;;5052494;28;20211;-60
2020/12/10 02:13:25;;;;;;;17.80;8.30;;;0.70;99.90;;;;;;5053682;28;20197;-60
2020/12/10 02:15:51;;;;;;;14.83;8.20;;;0.60;99.90;;;;;;5069438;28;20434;-60
2020/12/10 02:18:17;;;;;;;16.43;8.00;;;0.60;99.90;;;;;;5072329;28;20282;-60
2020/12/10 02:20:43;;;;;;;20.37;9.67;;;0.60;99.90;;;;;;5072684;28;20566;-60
2020/12/10 02:23:11;;;;;;;20.13;9.63;;;0.60;99.90;;;;;;5049709;28;20176;-60
2020/12/10 02:25:38;;;;;;;19.33;9.20;;;0.60;99.90;;;;;;5064576;28;20431;-60
2020/12/10 02:28:11;;;;;;;18.33;9.53;;;0.60;99.90;;;;;;5073258;28;20454;-59
2020/12/10 02:30:38;;;;;;;20.93;9.10;;;0.60;99.90;;;;;;5069409;28;20437;-60
2020/12/10 02:33:05;;;;;;;19.50;8.70;;;0.50;99.90;;;;;;5050808;28;20435;-60
2020/12/10 02:35:32;;;;;;;18.57;8.90;;;0.50;99.90;;;;;;5072464;28;20432;-60
2020/12/10 02:38:00;;;;;;;18.00;9.40;;;0.50;99.90;;;;;;5053516;28;20529;-61
2020/12/10 02:40:29;;;;;;;24.37;9.30;;;0.40;99.90;;;;;;5068097;28;20445;-60
2020/12/10 02:42:58;;;;;;;19.43;9.80;;;0.40;99.90;;;;;;5064394;28;20433;-59
2020/12/10 02:45:24;;;;;;;19.70;9.83;;;0.40;99.90;;;;;;5062582;28;21405;-59
2020/12/10 02:47:50;;;;;;;19.53;9.20;;;0.40;99.90;;;;;;5072452;28;20450;-60
2020/12/10 02:50:16;;;;;;;20.37;10.13;;;0.50;99.90;;;;;;5052428;28;20275;-60
2020/12/10 02:52:43;;;;;;;21.13;9.10;;;0.50;99.90;;;;;;5040070;28;20439;-60
2020/12/10 02:55:09;;;;;;;19.97;9.73;;;0.50;99.90;;;;;;5054244;28;20445;-60
2020/12/10 02:57:34;;;;;;;18.93;9.00;;;0.50;99.90;;;;;;5072875;28;20466;-60
2020/12/10 03:00:00;;;;;;;16.80;8.70;;;0.50;99.90;;;;;;5071122;28;20454;-60
2020/12/10 03:02:26;;;;;;;15.80;8.73;;;0.50;99.90;;;;;;5067626;28;20169;-60
2020/12/10 03:04:51;;;;;;;22.73;9.93;;;0.50;99.90;;;;;;5070776;28;20259;-60
2020/12/10 03:07:17;;;;;;;20.37;9.67;;;0.50;99.90;;;;;;5075139;22;20240;-61
2020/12/10 03:09:43;;;;;;;23.37;9.63;;;0.50;99.90;;;;;;5049216;28;20185;-60
2020/12/10 03:12:10;;;;;;;18.20;9.27;;;0.50;99.90;;;;;;5048120;28;20727;-60
2020/12/10 03:14:36;;;;;;;20.53;8.50;;;0.50;99.90;;;;;;5052852;28;20415;-61
2020/12/10 03:17:03;;;;;;;20.20;9.70;;;0.50;99.90;;;;;;5041757;28;21011;-61
2020/12/10 03:19:29;;;;;;;19.20;9.10;;;0.40;99.90;;;;;;5032051;28;20412;-61
2020/12/10 03:21:54;;;;;;;20.53;9.53;;;0.40;99.90;;;;;;5030804;28;20408;-61
2020/12/10 03:24:20;;;;;;;20.87;9.03;;;0.40;99.90;;;;;;5027250;28;20192;-62
2020/12/10 03:26:46;;;;;;;19.10;9.60;;;0.40;99.90;;;;;;5031319;28;20189;-62
2020/12/10 03:29:11;;;;;;;20.57;9.23;;;0.40;99.90;;;;;;5029716;28;20200;-60
2020/12/10 03:31:37;;;;;;;21.07;9.50;;;0.40;99.90;;;;;;5032190;28;20173;-61
2020/12/10 03:34:06;;;;;;;19.97;10.00;;;0.40;99.90;;;;;;5025951;28;20200;-61
2020/12/10 03:36:51;;;;;;;22.40;10.23;;;0.40;99.90;;;;;;5029411;28;20217;-61
2020/12/10 03:39:18;;;;;;;17.83;8.63;;;0.40;99.90;;;;;;5027686;28;20432;-61
2020/12/10 03:41:44;;;;;;;18.10;8.93;;;0.40;99.90;;;;;;5027826;28;20844;-62
2020/12/10 03:44:11;;;;;;;17.77;9.13;;;0.40;99.90;;;;;;5028981;28;20504;-61
2020/12/10 03:46:38;;;;;;;19.20;8.47;;;0.40;99.90;;;;;;5027293;28;20817;-61
2020/12/10 03:49:03;;;;;;;22.27;9.30;;;0.40;99.90;;;;;;5018999;28;20516;-61
2020/12/10 03:51:29;;;;;;;19.13;9.00;;;0.40;99.90;;;;;;5029457;28;20538;-61
2020/12/10 03:53:55;;;;;;;21.33;9.30;;;0.50;99.90;;;;;;5029743;28;20273;-60
2020/12/10 03:56:20;;;;;;;17.93;9.00;;;0.50;99.90;;;;;;5027099;28;20185;-61
2020/12/10 03:58:46;;;;;;;19.47;8.60;;;0.40;99.90;;;;;;5031985;28;20205;-61
2020/12/10 04:01:12;;;;;;;17.00;8.80;;;0.40;99.90;;;;;;5029844;28;20427;-61
2020/12/10 04:03:37;;;;;;;21.07;9.53;;;0.40;99.90;;;;;;5027057;28;20578;-61
2020/12/10 04:06:03;;;;;;;18.30;9.17;;;0.40;99.90;;;;;;5029383;28;20240;-61
2020/12/10 04:08:29;;;;;;;19.53;9.30;;;0.40;99.90;;;;;;5029194;28;20292;-61
2020/12/10 04:10:55;;;;;;;21.60;8.57;;;0.30;99.90;;;;;;5029213;28;20535;-61
2020/12/10 04:13:21;;;;;;;17.23;8.27;;;0.30;99.90;;;;;;5026936;28;20269;-60
2020/12/10 04:15:46;;;;;;;15.13;7.53;;;0.30;99.90;;;;;;5031178;28;20582;-61
2020/12/10 04:18:12;;;;;;;17.73;9.00;;;0.30;99.90;;;;;;5029740;28;20207;-61
2020/12/10 04:20:38;;;;;;;15.40;8.00;;;0.30;99.90;;;;;;5030502;28;20173;-61
2020/12/10 04:23:03;;;;;;;17.47;8.83;;;0.30;99.90;;;;;;5041940;28;20175;-61
2020/12/10 04:25:29;;;;;;;17.03;9.03;;;0.30;99.90;;;;;;5020238;28;20648;-60
2020/12/10 04:27:55;;;;;;;20.17;9.07;;;0.30;99.90;;;;;;5027873;28;20933;-61
2020/12/10 04:30:21;;;;;;;15.83;8.63;;;0.30;99.90;;;;;;5030642;28;20488;-60
2020/12/10 04:32:49;;;;;;;17.90;9.63;;;0.30;99.90;;;;;;5028891;28;20189;-61
2020/12/10 04:35:15;;;;;;;21.23;10.00;;;0.20;99.90;;;;;;5022174;28;20444;-61
2020/12/10 04:37:41;;;;;;;17.90;8.77;;;0.30;99.90;;;;;;5010186;28;20915;-61
2020/12/10 04:40:08;;;;;;;19.43;9.40;;;0.30;99.90;;;;;;5028825;28;20480;-61
2020/12/10 04:42:34;;;;;;;20.47;9.20;;;0.30;99.90;;;;;;5028396;28;20205;-62
2020/12/10 04:45:00;;;;;;;17.13;9.23;;;0.30;99.90;;;;;;5039575;28;20803;-61
2020/12/10 04:47:28;;;;;;;21.87;9.53;;;0.30;99.90;;;;;;5034924;28;20562;-61
2020/12/10 04:49:55;;;;;;;21.20;10.73;;;0.40;99.90;;;;;;5019729;28;20276;-62
2020/12/10 04:52:22;;;;;;;19.90;9.77;;;0.40;99.90;;;;;;5018042;28;20464;-62
2020/12/10 04:54:49;;;;;;;20.93;10.50;;;0.40;99.90;;;;;;5022575;28;20436;-61
2020/12/10 04:57:16;;;;;;;19.00;9.50;;;0.40;99.90;;;;;;5022235;28;20468;-59
2020/12/10 04:59:42;;;;;;;20.43;10.57;;;0.40;99.90;;;;;;5022441;28;20923;-59
2020/12/10 05:02:11;;;;;;;22.67;12.17;;;0.40;99.90;;;;;;5024509;28;20444;-59
2020/12/10 05:04:40;;;;;;;21.43;9.47;;;0.40;99.90;;;;;;5022834;28;20540;-59
2020/12/10 05:07:06;;;;;;;19.80;10.10;;;0.40;99.90;;;;;;5025144;28;20533;-62
2020/12/10 05:09:33;;;;;;;16.80;8.77;;;0.40;99.90;;;;;;5029813;28;21548;-66
2020/12/10 05:11:59;;;;;;;18.03;9.40;;;0.40;99.90;;;;;;5033034;28;20186;-61
2020/12/10 05:14:25;;;;;;;15.20;8.53;;;0.30;99.90;;;;;;5021911;28;20953;-61
2020/12/10 05:17:11;;;;;;;19.40;9.70;;;0.30;99.90;;;;;;5024883;28;20478;-61
2020/12/10 05:19:37;;;;;;;23.10;10.70;;;0.30;99.90;;;;;;5020599;28;20181;-63
2020/12/10 05:22:07;;;;;;;17.47;9.50;;;0.30;99.90;;;;;;5023290;28;20531;-61
2020/12/10 05:24:34;;;;;;;21.47;10.63;;;0.30;99.90;;;;;;5035353;28;20200;-63
2020/12/10 05:27:16;;;;;;;24.10;12.70;;;0.30;99.90;;;;;;5020239;28;20457;-62
2020/12/10 05:29:41;;;;;;;24.10;12.87;;;0.30;99.90;;;;;;5021029;28;20934;-62
2020/12/10 05:32:08;;;;;;;21.50;10.40;;;0.30;99.90;;;;;;5024755;28;20432;-62
2020/12/10 05:34:33;;;;;;;20.10;10.23;;;0.30;99.90;;;;;;5021660;28;20559;-62
2020/12/10 05:36:59;;;;;;;20.23;10.43;;;0.30;99.90;;;;;;5025376;28;20487;-62
2020/12/10 05:39:24;;;;;;;20.27;9.70;;;0.30;99.90;;;;;;5026564;28;20200;-62
2020/12/10 05:41:54;;;;;;;23.77;11.00;;;0.30;99.90;;;;;;5032316;28;20185;-62
2020/12/10 05:44:21;;;;;;;23.57;11.90;;;0.30;99.90;;;;;;5029270;28;20245;-61
2020/12/10 05:46:51;;;;;;;20.43;10.87;;;0.30;99.90;;;;;;5021901;28;20467;-63
2020/12/10 05:49:17;;;;;;;19.20;10.10;;;0.30;99.90;;;;;;5022024;28;20926;-63
2020/12/10 05:51:48;;;;;;;20.23;10.20;;;0.30;99.90;;;;;;5021209;28;20525;-63
2020/12/10 05:54:16;;;;;;;20.10;10.10;;;0.20;99.90;;;;;;5022527;28;20465;-61
2020/12/10 05:56:55;;;;;;;22.80;11.37;;;0.20;99.90;;;;;;5022301;28;20456;-61
2020/12/10 05:59:25;;;;;;;22.47;10.07;;;0.20;99.90;;;;;;5018514;28;20419;-64
2020/12/10 06:01:52;;;;;;;20.90;10.60;;;0.20;99.90;;;;;;5025912;28;20424;-61
2020/12/10 06:04:18;;;;;;;20.70;10.27;;;0.30;99.90;;;;;;5019505;28;20431;-61
2020/12/10 06:06:49;;;;;;;21.97;10.17;;;0.20;99.90;;;;;;5025152;28;20471;-61
2020/12/10 06:09:17;;;;;;;17.60;9.40;;;0.30;99.90;;;;;;5027880;28;20497;-62
2020/12/10 06:11:43;;;;;;;21.43;10.97;;;0.30;99.90;;;;;;5028685;28;20444;-61
2020/12/10 06:14:09;;;;;;;21.73;10.63;;;0.30;99.90;;;;;;5028222;28;20494;-61
2020/12/10 06:16:35;;;;;;;20.53;10.40;;;0.30;99.90;;;;;;5030412;28;20563;-61
2020/12/10 06:19:06;;;;;;;18.70;9.37;;;0.30;99.90;;;;;;5029789;28;20185;-62
2020/12/10 06:21:43;;;;;;;22.40;11.20;;;0.30;99.90;;;;;;5032936;28;20417;-61
2020/12/10 06:24:24;;;;;;;21.20;10.80;;;0.30;99.90;;;;;;5026488;28;21149;-60
2020/12/10 06:26:51;;;;;;;22.30;10.27;;;0.30;99.90;;;;;;5023113;28;20456;-60
2020/12/10 06:29:27;;;;;;;22.27;11.20;;;0.30;99.90;;;;;;5025994;28;20998;-61
2020/12/10 06:32:11;;;;;;;21.17;11.00;;;0.30;99.90;;;;;;5027530;28;20440;-62
2020/12/10 06:34:38;;;;;;;22.30;10.30;;;0.30;99.90;;;;;;5029864;28;20965;-61
2020/12/10 06:37:26;;;;;;;18.53;10.07;;;0.20;99.90;;;;;;5029818;28;20538;-63
2020/12/10 06:40:00;;;;;;;21.63;10.27;;;0.20;99.90;;;;;;5033037;28;20453;-59
2020/12/10 06:42:46;;;;;;;22.20;10.93;;;0.20;99.90;;;;;;5032880;28;20984;-58
2020/12/10 06:45:41;;;;;;;22.80;10.80;;;0.20;99.90;;;;;;5031552;28;20449;-62
2020/12/10 06:48:17;;;;;;;33.30;11.70;;;0.20;99.90;;;;;;5033110;28;20980;-61
2020/12/10 06:50:43;;;;;;;23.33;11.10;;;0.20;99.90;;;;;;5032906;28;20423;-60
2020/12/10 06:53:13;;;;;;;24.00;11.17;;;0.20;99.90;;;;;;5030581;28;20491;-60
2020/12/10 06:58:35;;;;;;;23.07;11.20;;;0.20;99.90;;;;;;5032953;28;21057;-59
2020/12/10 07:01:26;;;;;;;17.00;8.67;;;0.30;99.90;;;;;;5032793;28;20481;-60
2020/12/10 07:04:07;;;;;;;14.47;7.30;;;0.30;99.90;;;;;;5036973;28;20925;-62
2020/12/10 07:06:33;;;;;;;8.60;4.67;;;0.30;99.90;;;;;;5032434;28;20415;-62
2020/12/10 07:09:08;;;;;;;4.30;3.40;;;0.30;99.90;;;;;;5032617;28;20512;-60
2020/12/10 07:11:39;;;;;;;6.30;3.67;;;0.40;99.90;;;;;;5029291;28;20423;-59
2020/12/10 07:14:25;;;;;;;4.37;3.10;;;0.40;99.90;;;;;;5025996;28;20451;-61
2020/12/10 07:16:51;;;;;;;5.97;3.30;;;0.40;99.90;;;;;;5032066;28;20497;-61
2020/12/10 07:19:17;;;;;;;7.33;4.23;;;0.40;99.90;;;;;;5030513;28;20781;-59
2020/12/10 07:21:43;;;;;;;5.50;4.30;;;0.30;99.90;;;;;;5026088;28;20488;-61
2020/12/10 07:24:09;;;;;;;4.90;3.53;;;0.40;99.90;;;;;;5022344;28;20189;-59
2020/12/10 07:26:35;;;;;;;5.27;3.77;;;0.40;99.90;;;;;;5019503;28;20486;-61
2020/12/10 07:29:00;;;;;;;3.77;3.37;;;0.40;99.90;;;;;;5031640;28;20177;-58
2020/12/10 07:31:26;;;;;;;5.47;3.50;;;0.40;99.90;;;;;;5030800;28;20424;-60
2020/12/10 07:33:58;;;;;;;4.60;3.53;;;0.40;99.90;;;;;;5029393;28;20174;-59
2020/12/10 07:36:26;;;;;;;6.63;4.17;;;0.40;99.90;;;;;;5030829;28;20319;-59
2020/12/10 07:38:51;;;;;;;6.50;4.57;;;0.40;99.90;;;;;;5030129;28;20439;-61
2020/12/10 07:41:17;;;;;;;7.30;4.20;;;0.40;99.90;;;;;;5025435;28;20809;-59
2020/12/10 07:43:53;;;;;;;4.47;3.50;;;0.40;99.90;;;;;;5028847;28;20181;-60
2020/12/10 07:46:20;;;;;;;6.77;4.80;;;0.40;99.90;;;;;;5031807;28;20189;-62
2020/12/10 07:48:49;;;;;;;6.80;4.53;;;0.50;99.90;;;;;;5033116;28;20528;-59
2020/12/10 07:51:22;;;;;;;7.30;4.90;;;0.50;99.90;;;;;;5027961;28;20444;-59
2020/12/10 07:53:48;;;;;;;8.50;4.77;;;0.50;99.90;;;;;;5033743;28;20550;-60
2020/12/10 07:56:22;;;;;;;8.10;5.30;;;0.50;99.90;;;;;;5030418;28;20515;-61
2020/12/10 07:59:02;;;;;;;7.63;5.10;;;0.50;99.90;;;;;;5029165;28;20458;-59
2020/12/10 08:01:35;;;;;;;5.17;4.67;;;0.50;99.90;;;;;;5023624;28;20424;-61
2020/12/10 08:04:14;;;;;;;5.50;4.47;;;0.50;99.90;;;;;;5031335;28;20422;-59
2020/12/10 08:06:42;;;;;;;8.53;5.17;;;0.50;99.90;;;;;;5024672;28;20425;-59
2020/12/10 08:09:08;;;;;;;6.60;4.37;;;0.50;99.90;;;;;;5031756;28;20782;-61
2020/12/10 08:11:33;;;;;;;5.50;4.10;;;0.50;99.90;;;;;;5031357;28;20455;-60
2020/12/10 08:14:02;;;;;;;5.13;3.83;;;0.50;99.90;;;;;;5029820;28;20866;-62
2020/12/10 08:16:45;;;;;;;7.83;4.53;;;0.50;99.90;;;;;;5028921;28;20255;-60
2020/12/10 08:19:22;;;;;;;5.93;4.10;;;0.50;99.90;;;;;;5026762;28;20431;-60
2020/12/10 08:21:50;;;;;;;8.63;5.23;;;0.50;99.90;;;;;;5029955;28;20443;-62
2020/12/10 08:24:36;;;;;;;6.27;4.07;;;0.50;99.90;;;;;;5022914;28;20929;-59
2020/12/10 08:27:02;;;;;;;5.13;4.23;;;0.50;99.90;;;;;;5030368;28;20464;-60
2020/12/10 08:29:28;;;;;;;6.80;4.57;;;0.50;99.90;;;;;;5031909;28;20420;-60
2020/12/10 08:32:11;;;;;;;7.73;4.47;;;0.50;99.90;;;;;;5029168;28;20438;-61
2020/12/10 08:34:38;;;;;;;14.73;4.80;;;0.50;99.90;;;;;;5031138;28;20648;-59
2020/12/10 08:37:08;;;;;;;7.67;4.80;;;0.50;99.90;;;;;;5030691;28;20475;-61
2020/12/10 08:39:34;;;;;;;7.40;4.90;;;0.40;99.90;;;;;;5029107;28;20432;-59
2020/12/10 08:42:01;;;;;;;7.47;5.10;;;0.50;99.90;;;;;;5027425;28;20438;-60
2020/12/10 08:44:50;;;;;;;7.43;4.70;;;0.50;99.90;;;;;;5037305;28;20427;-60
2020/12/10 08:47:26;;;;;;;6.87;4.67;;;0.50;99.90;;;;;;5032890;28;20455;-58
2020/12/10 08:50:30;;;;;;;7.13;4.97;;;0.50;99.90;;;;;;5036297;28;20443;-62
2020/12/10 08:52:58;;;;;;;7.60;5.10;;;0.50;99.90;;;;;;5029409;28;20466;-60
2020/12/10 08:55:29;;;;;;;6.73;4.47;;;0.60;99.90;;;;;;5025617;28;20447;-61
2020/12/10 08:57:56;;;;;;;6.80;4.97;;;0.60;99.90;;;;;;5043852;28;20561;-61
2020/12/10 09:00:22;;;;;;;6.63;4.90;;;0.60;99.90;;;;;;5022225;28;20504;-60
2020/12/10 09:02:48;;;;;;;5.93;4.53;;;0.60;99.90;;;;;;5026911;28;20520;-60
2020/12/10 09:05:16;;;;;;;6.27;5.10;;;0.60;99.90;;;;;;5021577;28;20517;-60
2020/12/10 09:07:42;;;;;;;5.97;4.47;;;0.60;99.80;;;;;;5046950;22;20594;-54
2020/12/10 09:10:08;;;;;;;5.20;4.37;;;0.60;99.60;;;;;;5022080;28;20416;-54
2020/12/10 09:12:34;;;;;;;8.87;5.10;;;0.60;99.90;;;;;;5029913;28;20698;-52
2020/12/10 09:14:59;;;;;;;6.53;5.10;;;0.60;99.90;;;;;;5018880;28;20431;-53
2020/12/10 09:17:27;;;;;;;7.77;4.90;;;0.70;99.90;;;;;;5036340;28;20212;-53
2020/12/10 09:19:53;;;;;;;7.03;4.50;;;0.70;99.90;;;;;;5035982;28;20181;-54
2020/12/10 09:22:19;;;;;;;7.53;5.17;;;0.70;99.90;;;;;;5028670;28;20448;-54
2020/12/10 09:24:45;;;;;;;13.50;6.30;;;0.70;99.90;;;;;;5028863;28;20543;-54
2020/12/10 09:27:11;;;;;;;11.30;6.90;;;0.70;99.90;;;;;;5030910;28;20280;-54
2020/12/10 09:29:37;;;;;;;8.10;5.13;;;0.70;99.70;;;;;;5045310;28;20986;-52
2020/12/10 09:32:04;;;;;;;8.10;5.80;;;0.80;99.70;;;;;;5028744;28;20440;-53
2020/12/10 09:34:30;;;;;;;5.57;4.73;;;0.80;99.80;;;;;;5050791;28;20198;-54
2020/12/10 09:36:58;;;;;;;8.67;5.80;;;0.80;99.90;;;;;;5043466;28;20792;-52
2020/12/10 09:39:24;;;;;;;6.93;4.80;;;0.80;99.90;;;;;;5035108;28;20479;-54
2020/12/10 09:41:50;;;;;;;7.80;4.70;;;0.80;99.80;;;;;;5032831;28;20435;-54
2020/12/10 09:44:16;;;;;;;7.30;4.40;;;0.90;99.50;;;;;;5039023;28;20211;-54
2020/12/10 09:46:42;;;;;;;7.53;4.90;;;0.90;99.40;;;;;;5044519;28;20674;-54
2020/12/10 09:49:08;;;;;;;11.10;5.80;;;0.90;99.30;;;;;;5046434;28;20473;-54
2020/12/10 09:51:47;;;;;;;8.30;5.33;;;0.90;99.30;;;;;;5035750;28;20428;-54
2020/12/10 09:54:37;;;;;;;8.20;5.10;;;1.00;99.20;;;;;;5045601;28;20181;-54
2020/12/10 09:59:33;;;;;;;10.13;5.47;;;1.00;98.80;;;;;;5035620;28;20431;-53
2020/12/10 10:01:59;;;;;;;10.90;7.17;;;1.00;98.70;;;;;;5050393;28;20423;-51
2020/12/10 10:04:25;;;;;;;107.53;28.23;;;1.00;98.90;;;;;;5054729;28;20893;-53
2020/12/10 10:06:51;;;;;;;46.00;21.07;;;1.00;98.60;;;;;;5039579;28;20438;-53
2020/12/10 10:09:16;;;;;;;20.57;9.17;;;1.10;98.40;;;;;;5025787;28;20270;-53
2020/12/10 10:11:44;;;;;;;15.73;9.20;;;1.00;98.30;;;;;;5053122;28;20169;-52
2020/12/10 10:14:10;;;;;;;27.17;20.40;;;1.00;98.30;;;;;;5036867;28;20424;-54
2020/12/10 10:16:36;;;;;;;9.67;7.67;;;1.10;98.50;;;;;;5037774;28;20425;-54
2020/12/10 10:19:01;;;;;;;8.90;6.80;;;1.00;98.20;;;;;;5053651;28;20638;-53
2020/12/10 10:21:28;;;;;;;11.10;6.47;;;1.10;98.60;;;;;;5033980;28;20599;-54
2020/12/10 10:23:55;;;;;;;8.57;5.60;;;1.10;98.50;;;;;;5022090;28;20437;-54
2020/12/10 10:26:21;;;;;;;12.43;7.23;;;1.10;98.40;;;;;;5029891;28;20751;-53
2020/12/10 10:28:50;;;;;;;13.13;7.20;;;1.20;98.40;;;;;;5036481;28;21000;-55
2020/12/10 10:31:16;;;;;;;14.33;7.60;;;1.10;98.40;;;;;;5031221;28;20690;-54
2020/12/10 10:33:42;;;;;;;12.10;8.27;;;1.20;98.50;;;;;;5043716;28;20789;-54
2020/12/10 10:36:09;;;;;;;13.23;7.90;;;1.20;98.60;;;;;;5035436;28;20193;-54
2020/12/10 10:38:35;;;;;;;14.50;9.87;;;1.20;98.50;;;;;;5036344;28;20551;-56
2020/12/10 10:41:01;;;;;;;17.73;9.00;;;1.30;98.60;;;;;;5033657;28;20530;-56
2020/12/10 10:43:27;;;;;;;15.67;9.13;;;1.30;98.70;;;;;;5037032;28;20891;-55
2020/12/10 10:45:53;;;;;;;16.93;9.00;;;1.30;98.60;;;;;;5035395;28;21175;-57
2020/12/10 10:48:18;;;;;;;13.00;8.90;;;1.30;98.80;;;;;;5034873;28;20202;-57
2020/12/10 10:50:44;;;;;;;17.60;9.60;;;1.30;98.80;;;;;;5043132;28;20668;-56
2020/12/10 10:53:10;;;;;;;13.80;9.30;;;1.30;98.40;;;;;;5029430;28;20177;-55
2020/12/10 10:55:35;;;;;;;12.10;8.00;;;1.30;98.50;;;;;;5029253;28;20184;-56
2020/12/10 10:58:01;;;;;;;15.40;9.30;;;1.40;98.80;;;;;;5033758;28;20750;-55
2020/12/10 11:00:26;;;;;;;16.60;9.23;;;1.40;98.70;;;;;;5032979;28;20186;-54
2020/12/10 11:02:52;;;;;;;16.17;9.17;;;1.40;98.80;;;;;;5032349;28;20265;-56
2020/12/10 11:05:18;;;;;;;18.40;10.33;;;1.50;98.80;;;;;;5031586;28;20280;-55
2020/12/10 11:07:44;;;;;;;16.93;9.40;;;1.60;98.80;;;;;;5002267;28;635924;-54
2020/12/10 11:10:13;;;;;;;19.83;8.90;;;1.60;98.60;;;;;;5014300;28;20640;-54
2020/12/10 11:12:41;;;;;;;19.57;9.00;;;1.60;98.50;;;;;;5030887;28;20193;-56
2020/12/10 11:15:07;;;;;;;15.40;9.27;;;1.60;98.50;;;;;;5038222;28;20441;-57
2020/12/10 11:17:33;;;;;;;18.80;10.60;;;1.60;98.70;;;;;;5029800;28;20816;-55
2020/12/10 11:20:00;;;;;;;18.90;10.80;;;1.70;98.60;;;;;;5034026;28;20178;-55
2020/12/10 11:22:26;;;;;;;18.60;10.43;;;1.80;98.50;;;;;;5041057;28;20854;-55
2020/12/10 11:24:52;;;;;;;19.87;10.27;;;1.70;98.40;;;;;;5022938;28;20431;-55
2020/12/10 11:27:17;;;;;;;20.37;11.00;;;1.80;98.30;;;;;;5035529;28;20213;-56
2020/12/10 11:29:43;;;;;;;16.50;10.17;;;1.70;98.10;;;;;;5035501;28;20913;-54
2020/12/10 11:32:09;;;;;;;18.57;10.40;;;1.70;98.50;;;;;;5031083;28;20248;-56
2020/12/10 11:34:35;;;;;;;16.37;9.73;;;1.60;98.50;;;;;;5032822;28;20802;-55
2020/12/10 11:37:01;;;;;;;18.37;9.90;;;1.60;98.70;;;;;;5034200;28;20633;-55
2020/12/10 11:39:26;;;;;;;15.70;9.40;;;1.60;98.80;;;;;;5030980;28;20264;-56
2020/12/10 11:41:52;;;;;;;15.27;8.80;;;1.60;98.80;;;;;;5040046;28;20177;-55
2020/12/10 11:44:18;;;;;;;18.80;9.63;;;1.60;98.60;;;;;;5026284;28;20186;-56
2020/12/10 11:46:47;;;;;;;14.20;8.23;;;1.60;98.40;;;;;;5032093;28;20421;-55
2020/12/10 11:49:13;;;;;;;16.87;9.87;;;1.70;98.40;;;;;;5046910;28;20563;-55
2020/12/10 11:51:38;;;;;;;14.97;8.80;;;1.70;98.00;;;;;;5030564;28;20430;-55
2020/12/10 11:54:05;;;;;;;15.13;8.70;;;1.70;98.00;;;;;;5012440;28;20190;-56
2020/12/10 11:56:31;;;;;;;13.93;8.07;;;1.70;98.00;;;;;;5043613;28;20196;-56
2020/12/10 11:58:57;;;;;;;14.53;8.33;;;1.70;97.90;;;;;;5023065;28;20435;-56
2020/12/10 12:01:23;;;;;;;11.53;7.93;;;1.80;97.70;;;;;;5017641;28;20420;-56
2020/12/10 12:03:48;;;;;;;15.00;8.03;;;1.80;97.50;;;;;;5032589;28;21067;-56
2020/12/10 12:06:16;;;;;;;17.60;10.50;;;1.70;97.30;;;;;;5031502;28;20567;-55
2020/12/10 12:08:42;;;;;;;13.50;8.07;;;1.70;97.30;;;;;;5033286;28;20216;-54
2020/12/10 12:11:08;;;;;;;19.03;10.23;;;1.70;97.30;;;;;;5042850;28;20803;-55
2020/12/10 12:13:33;;;;;;;15.23;9.10;;;1.70;97.40;;;;;;5045080;28;20419;-56
2020/12/10 12:16:00;;;;;;;19.63;11.13;;;1.60;97.60;;;;;;5012932;28;20316;-54
2020/12/10 12:18:27;;;;;;;16.73;9.33;;;1.60;97.90;;;;;;5012662;28;20221;-55
2020/12/10 12:20:53;;;;;;;22.87;12.73;;;1.60;98.20;;;;;;5035763;28;20427;-55
2020/12/10 12:23:18;;;;;;;22.60;12.30;;;1.60;98.20;;;;;;5035273;28;20417;-57
2020/12/10 12:25:44;;;;;;;19.50;10.40;;;1.60;98.30;;;;;;5035923;28;20456;-55
2020/12/10 12:28:10;;;;;;;17.60;10.50;;;1.50;98.40;;;;;;5040114;28;20212;-54
2020/12/10 12:30:37;;;;;;;13.93;9.10;;;1.50;98.40;;;;;;5046412;28;20445;-55
2020/12/10 12:33:03;;;;;;;18.97;10.70;;;1.50;98.30;;;;;;5038649;28;20200;-56
2020/12/10 12:35:30;;;;;;;15.40;9.23;;;1.50;98.30;;;;;;5033381;28;20801;-55
2020/12/10 12:37:57;;;;;;;14.20;9.47;;;1.40;98.30;;;;;;5042079;28;20593;-54
2020/12/10 12:40:23;;;;;;;18.00;10.23;;;1.40;98.10;;;;;;5034534;28;20502;-55
2020/12/10 12:42:49;;;;;;;15.77;9.47;;;1.40;98.30;;;;;;5035052;28;20510;-57
2020/12/10 12:45:16;;;;;;;15.20;9.17;;;1.40;98.40;;;;;;5043854;28;20526;-54
2020/12/10 12:47:43;;;;;;;15.73;9.63;;;1.30;98.10;;;;;;5033274;28;20249;-54
2020/12/10 12:50:09;;;;;;;13.00;8.47;;;1.30;98.20;;;;;;5028121;28;20950;-54
2020/12/10 12:52:35;;;;;;;13.03;9.27;;;1.30;98.10;;;;;;5030197;28;22004;-56
2020/12/10 12:55:01;;;;;;;13.43;9.07;;;1.20;98.00;;;;;;5033968;28;20428;-56
2020/12/10 12:57:27;;;;;;;25.37;12.40;;;1.20;98.30;;;;;;5023982;28;20234;-54